createdAt,value
2019-05-25T00:01:13.890Z,12.40
2019-05-25T00:03:43.195Z,12.40
2019-05-25T00:06:12.613Z,12.40
2019-05-25T00:08:41.959Z,12.30
2019-05-25T00:11:11.386Z,12.30
2019-05-25T00:13:40.743Z,12.30
2019-05-25T00:16:10.120Z,12.20
2019-05-25T00:18:39.532Z,12.20
2019-05-25T00:21:08.862Z,12.20
2019-05-25T00:23:38.183Z,12.10
2019-05-25T00:26:07.590Z,12.10
2019-05-25T00:28:37.003Z,12.10
2019-05-25T00:31:06.523Z,12.10
2019-05-25T00:33:35.931Z,12.10
2019-05-25T00:36:05.334Z,12.00
2019-05-25T00:38:34.740Z,12.00
2019-05-25T00:41:04.090Z,11.90
2019-05-25T00:43:33.442Z,11.90
2019-05-25T00:46:02.752Z,11.90
2019-05-25T00:48:32.091Z,11.90
2019-05-25T00:51:01.386Z,11.80
2019-05-25T00:53:30.803Z,11.80
2019-05-25T00:56:00.130Z,11.80
2019-05-25T00:58:29.559Z,11.80
2019-05-25T01:00:58.989Z,11.70
2019-05-25T01:03:28.394Z,11.70
2019-05-25T01:05:57.736Z,11.70
2019-05-25T01:08:27.086Z,11.70
2019-05-25T01:10:56.432Z,11.70
2019-05-25T01:13:25.847Z,11.70
2019-05-25T01:15:55.242Z,11.70
2019-05-25T01:18:24.590Z,11.70
2019-05-25T01:20:53.915Z,11.60
2019-05-25T01:23:23.306Z,11.60
2019-05-25T01:25:52.733Z,11.50
2019-05-25T01:28:22.097Z,11.50
2019-05-25T01:30:51.486Z,11.50
2019-05-25T01:33:20.832Z,11.40
2019-05-25T01:35:50.170Z,11.30
2019-05-25T01:38:19.590Z,11.30
2019-05-25T01:40:48.952Z,11.30
2019-05-25T01:43:18.319Z,11.20
2019-05-25T01:45:47.690Z,11.20
2019-05-25T01:48:17.050Z,11.10
2019-05-25T01:50:46.343Z,11.10
2019-05-25T01:53:15.686Z,11.10
2019-05-25T01:55:45.055Z,11.10
2019-05-25T01:58:14.450Z,11.20
2019-05-25T02:00:43.782Z,11.20
2019-05-25T02:03:13.090Z,11.20
2019-05-25T02:05:42.534Z,11.20
2019-05-25T02:08:11.864Z,11.20
2019-05-25T02:10:41.295Z,11.20
2019-05-25T02:13:10.638Z,11.20
2019-05-25T02:15:39.986Z,11.20
2019-05-25T02:18:09.415Z,11.20
2019-05-25T02:20:38.762Z,11.10
2019-05-25T02:23:08.208Z,11.10
2019-05-25T02:25:37.598Z,11.00
2019-05-25T02:28:06.933Z,11.00
2019-05-25T02:30:36.415Z,11.00
2019-05-25T02:33:05.819Z,10.90
2019-05-25T02:35:35.183Z,10.90
2019-05-25T02:38:04.521Z,10.90
2019-05-25T02:40:33.938Z,10.90
2019-05-25T02:43:03.337Z,10.80
2019-05-25T02:45:32.725Z,10.80
2019-05-25T02:48:02.354Z,10.70
2019-05-25T02:50:31.668Z,10.70
2019-05-25T02:53:02.287Z,10.60
2019-05-25T02:55:34.845Z,10.60
2019-05-25T02:58:02.996Z,10.60
2019-05-25T03:00:33.557Z,10.50
2019-05-25T03:03:04.024Z,10.50
2019-05-25T03:05:33.329Z,10.50
2019-05-25T03:08:03.192Z,10.40
2019-05-25T03:10:32.841Z,10.40
2019-05-25T03:13:04.150Z,10.40
2019-05-25T03:15:33.555Z,10.30
2019-05-25T03:18:02.985Z,10.30
2019-05-25T03:20:32.377Z,10.30
2019-05-25T03:23:02.283Z,10.30
2019-05-25T03:25:31.641Z,10.20
2019-05-25T03:28:03.667Z,10.20
2019-05-25T03:30:34.991Z,10.20
2019-05-25T03:33:04.617Z,10.20
2019-05-25T03:35:34.012Z,10.20
2019-05-25T03:38:03.491Z,10.20
2019-05-25T03:40:32.874Z,10.20
2019-05-25T03:43:02.934Z,10.20
2019-05-25T03:45:32.262Z,10.20
2019-05-25T03:48:03.070Z,10.20
2019-05-25T03:50:32.466Z,10.30
2019-05-25T03:53:03.420Z,10.30
2019-05-25T03:55:32.889Z,10.30
2019-05-25T03:58:02.294Z,10.30
2019-05-25T04:00:36.334Z,10.40
2019-05-25T04:03:07.123Z,10.40
2019-05-25T04:05:36.433Z,10.50
2019-05-25T04:08:06.270Z,10.60
2019-05-25T04:10:38.674Z,10.60
2019-05-25T04:13:06.711Z,10.70
2019-05-25T04:15:36.174Z,10.70
2019-05-25T04:18:05.523Z,10.80
2019-05-25T04:20:35.184Z,10.80
2019-05-25T04:23:04.546Z,10.90
2019-05-25T04:25:33.926Z,11.00
2019-05-25T04:28:03.314Z,11.10
2019-05-25T04:30:32.725Z,11.10
2019-05-25T04:33:02.041Z,11.20
2019-05-25T04:35:31.466Z,11.20
2019-05-25T04:38:00.766Z,11.30
2019-05-25T04:40:30.176Z,11.30
2019-05-25T04:42:59.542Z,11.30
2019-05-25T04:45:28.888Z,11.40
2019-05-25T04:47:58.370Z,11.50
2019-05-25T04:50:27.788Z,11.50
2019-05-25T04:52:57.231Z,11.60
2019-05-25T04:55:26.664Z,11.60
2019-05-25T04:57:56.026Z,11.60
2019-05-25T05:00:25.404Z,11.70
2019-05-25T05:02:54.930Z,11.80
2019-05-25T05:05:24.348Z,11.80
2019-05-25T05:07:53.691Z,11.90
2019-05-25T05:10:23.156Z,12.00
2019-05-25T05:12:52.628Z,12.10
2019-05-25T05:15:22.046Z,12.10
2019-05-25T05:17:51.562Z,12.20
2019-05-25T05:20:21.224Z,12.20
2019-05-25T05:22:50.616Z,12.30
2019-05-25T05:25:20.016Z,12.40
2019-05-25T05:27:49.441Z,12.50
2019-05-25T05:30:23.077Z,12.60
2019-05-25T05:32:52.520Z,12.80
2019-05-25T05:35:22.650Z,12.90
2019-05-25T05:37:52.514Z,13.10
2019-05-25T05:40:21.925Z,13.20
2019-05-25T05:42:52.999Z,13.30
2019-05-25T05:45:22.455Z,13.40
2019-05-25T05:47:52.770Z,13.50
2019-05-25T05:50:23.710Z,13.70
2019-05-25T05:52:54.590Z,13.70
2019-05-25T05:55:30.982Z,13.80
2019-05-25T05:58:00.599Z,13.90
2019-05-25T06:00:32.242Z,14.00
2019-05-25T06:03:03.499Z,14.00
2019-05-25T06:05:32.946Z,14.10
2019-05-25T06:08:02.355Z,14.20
2019-05-25T06:10:31.817Z,14.20
2019-05-25T06:13:01.175Z,14.30
2019-05-25T06:15:30.530Z,14.40
2019-05-25T06:17:59.999Z,14.50
2019-05-25T06:20:29.481Z,14.60
2019-05-25T06:22:58.841Z,14.80
2019-05-25T06:25:28.454Z,14.90
2019-05-25T06:27:57.860Z,15.00
2019-05-25T06:30:27.290Z,15.10
2019-05-25T06:32:56.673Z,15.20
2019-05-25T06:35:26.066Z,15.40
2019-05-25T06:37:55.438Z,15.40
2019-05-25T06:40:24.907Z,15.50
2019-05-25T06:42:54.271Z,15.60
2019-05-25T06:45:23.726Z,15.70
2019-05-25T06:47:53.126Z,15.80
2019-05-25T06:50:22.630Z,16.00
2019-05-25T06:52:51.998Z,16.10
2019-05-25T06:55:21.417Z,16.20
2019-05-25T06:57:50.806Z,16.30
2019-05-25T07:00:21.619Z,16.50
2019-05-25T07:02:51.510Z,16.60
2019-05-25T07:05:20.929Z,16.70
2019-05-25T07:07:53.841Z,16.90
2019-05-25T07:10:21.386Z,17.10
2019-05-25T07:12:50.822Z,17.20
2019-05-25T07:15:20.434Z,17.40
2019-05-25T07:17:49.796Z,17.60
2019-05-25T07:20:20.695Z,17.80
2019-05-25T07:22:50.140Z,17.90
2019-05-25T07:25:20.358Z,18.10
2019-05-25T07:27:59.000Z,18.20
2019-05-25T07:30:21.873Z,18.40
2019-05-25T07:32:51.349Z,18.60
2019-05-25T07:35:20.764Z,18.80
2019-05-25T07:37:50.250Z,18.90
2019-05-25T07:40:19.680Z,19.00
2019-05-25T07:42:49.058Z,19.20
2019-05-25T07:45:18.526Z,19.30
2019-05-25T07:47:47.859Z,19.40
2019-05-25T07:50:17.394Z,19.60
2019-05-25T07:52:46.887Z,19.70
2019-05-25T07:55:16.253Z,19.90
2019-05-25T07:57:45.678Z,20.10
2019-05-25T08:00:15.228Z,20.20
2019-05-25T08:02:44.688Z,20.40
2019-05-25T08:05:14.521Z,20.50
2019-05-25T08:07:43.923Z,20.70
2019-05-25T08:10:14.865Z,20.80
2019-05-25T08:12:44.342Z,20.90
2019-05-25T08:15:14.144Z,21.10
2019-05-25T08:17:43.522Z,21.20
2019-05-25T08:20:13.248Z,21.30
2019-05-25T08:22:42.585Z,21.40
2019-05-25T08:25:12.059Z,21.60
2019-05-25T08:27:41.386Z,21.60
2019-05-25T08:30:11.153Z,21.60
2019-05-25T08:32:40.511Z,21.80
2019-05-25T08:35:11.486Z,22.00
2019-05-25T08:37:40.838Z,22.20
2019-05-25T08:40:11.255Z,22.40
2019-05-25T08:42:40.770Z,22.50
2019-05-25T08:45:10.805Z,22.70
2019-05-25T08:47:40.240Z,22.90
2019-05-25T08:50:09.808Z,23.10
2019-05-25T08:52:39.296Z,23.30
2019-05-25T08:55:10.276Z,23.20
2019-05-25T08:57:39.719Z,23.30
2019-05-25T09:00:09.526Z,23.40
2019-05-25T09:02:38.948Z,23.30
2019-05-25T09:05:08.546Z,23.50
2019-05-25T09:07:38.043Z,23.60
2019-05-25T09:10:08.794Z,23.70
2019-05-25T09:12:38.238Z,23.80
2019-05-25T09:15:08.859Z,23.80
2019-05-25T09:17:38.317Z,24.00
2019-05-25T09:20:08.683Z,24.30
2019-05-25T09:22:38.124Z,24.50
2019-05-25T09:25:08.534Z,24.60
2019-05-25T09:27:38.074Z,24.80
2019-05-25T09:30:07.835Z,25.00
2019-05-25T09:32:37.279Z,25.20
2019-05-25T09:35:07.905Z,25.30
2019-05-25T09:37:37.365Z,25.40
2019-05-25T09:40:08.378Z,25.60
2019-05-25T09:42:38.593Z,25.60
2019-05-25T09:45:13.922Z,25.70
2019-05-25T09:47:41.511Z,25.60
2019-05-25T09:50:11.327Z,25.80
2019-05-25T09:52:40.763Z,25.50
2019-05-25T09:55:10.825Z,25.60
2019-05-25T09:57:41.765Z,25.80
2019-05-25T10:00:12.400Z,25.80
2019-05-25T10:02:42.565Z,25.90
2019-05-25T10:05:13.270Z,26.10
2019-05-25T10:07:42.741Z,26.20
2019-05-25T10:10:12.731Z,26.40
2019-05-25T10:12:42.170Z,26.20
2019-05-25T10:15:11.568Z,26.40
2019-05-25T10:17:41.038Z,26.40
2019-05-25T10:20:10.574Z,26.40
2019-05-25T10:22:40.063Z,26.60
2019-05-25T10:25:09.829Z,26.50
2019-05-25T10:27:39.294Z,26.40
2019-05-25T10:30:09.590Z,26.40
2019-05-25T10:32:38.982Z,26.70
2019-05-25T10:35:08.790Z,27.00
2019-05-25T10:37:38.243Z,27.10
2019-05-25T10:40:08.812Z,27.10
2019-05-25T10:42:38.218Z,27.20
2019-05-25T10:45:09.117Z,27.30
2019-05-25T10:47:38.610Z,27.50
2019-05-25T10:50:10.567Z,27.60
2019-05-25T10:52:41.114Z,27.60
2019-05-25T10:55:11.139Z,27.70
2019-05-25T10:57:40.597Z,27.70
2019-05-25T11:00:10.991Z,28.00
2019-05-25T11:02:40.366Z,28.00
2019-05-25T11:05:10.831Z,28.30
2019-05-25T11:07:40.296Z,28.30
2019-05-25T11:10:10.255Z,28.10
2019-05-25T11:12:39.670Z,27.90
2019-05-25T11:15:09.654Z,27.90
2019-05-25T11:17:39.082Z,28.20
2019-05-25T11:20:11.243Z,28.20
2019-05-25T11:22:40.739Z,28.30
2019-05-25T11:25:10.824Z,28.20
2019-05-25T11:27:40.307Z,28.20
2019-05-25T11:30:10.562Z,28.40
2019-05-25T11:32:40.634Z,28.40
2019-05-25T11:35:10.450Z,28.20
2019-05-25T11:37:39.867Z,27.90
2019-05-25T11:40:09.964Z,28.00
2019-05-25T11:42:39.416Z,27.70
2019-05-25T11:45:09.693Z,27.90
2019-05-25T11:47:39.151Z,28.10
2019-05-25T11:50:08.858Z,28.00
2019-05-25T11:52:38.470Z,28.20
2019-05-25T11:55:09.579Z,28.30
2019-05-25T11:57:39.057Z,28.40
2019-05-25T12:00:23.790Z,28.60
2019-05-25T12:02:41.339Z,28.80
2019-05-25T12:05:11.949Z,28.80
2019-05-25T12:07:44.443Z,28.80
2019-05-25T12:10:13.181Z,28.60
2019-05-25T12:12:42.574Z,28.30
2019-05-25T12:15:13.603Z,27.80
2019-05-25T12:17:43.022Z,27.90
2019-05-25T12:20:14.085Z,28.20
2019-05-25T12:22:43.574Z,28.20
2019-05-25T12:25:13.099Z,27.90
2019-05-25T12:27:42.490Z,28.30
2019-05-25T12:30:12.474Z,28.50
2019-05-25T12:32:41.882Z,28.00
2019-05-25T12:35:11.662Z,28.40
2019-05-25T12:37:41.066Z,28.50
2019-05-25T12:40:10.635Z,28.60
2019-05-25T12:42:39.944Z,28.40
2019-05-25T12:45:10.451Z,28.30
2019-05-25T12:47:39.919Z,28.10
2019-05-25T12:50:11.850Z,28.20
2019-05-25T12:52:41.250Z,28.20
2019-05-25T12:55:10.882Z,28.30
2019-05-25T12:57:40.235Z,28.50
2019-05-25T13:00:15.946Z,28.60
2019-05-25T13:02:41.634Z,28.40
2019-05-25T13:05:11.163Z,28.10
2019-05-25T13:07:40.564Z,28.00
2019-05-25T13:10:13.998Z,27.90
2019-05-25T13:12:43.395Z,27.90
2019-05-25T13:15:12.887Z,28.00
2019-05-25T13:17:42.200Z,28.10
2019-05-25T13:20:12.002Z,28.20
2019-05-25T13:22:41.380Z,28.20
2019-05-25T13:25:11.052Z,28.00
2019-05-25T13:27:42.019Z,27.70
2019-05-25T13:30:11.411Z,27.50
2019-05-25T13:32:40.714Z,27.50
2019-05-25T13:35:10.310Z,27.70
2019-05-25T13:37:39.769Z,27.60
2019-05-25T13:40:09.326Z,27.60
2019-05-25T13:42:38.722Z,27.50
2019-05-25T13:45:09.908Z,27.50
2019-05-25T13:47:39.354Z,27.70
2019-05-25T13:50:09.628Z,27.80
2019-05-25T13:52:39.093Z,27.70
2019-05-25T13:55:10.122Z,27.50
2019-05-25T13:57:39.668Z,27.40
2019-05-25T14:00:10.930Z,27.50
2019-05-25T14:02:40.297Z,27.40
2019-05-25T14:05:10.103Z,27.50
2019-05-25T14:07:39.487Z,27.40
2019-05-25T14:10:09.324Z,27.50
2019-05-25T14:12:38.708Z,27.50
2019-05-25T14:15:08.626Z,27.40
2019-05-25T14:17:38.454Z,27.10
2019-05-25T14:20:08.940Z,27.00
2019-05-25T14:22:38.414Z,27.00
2019-05-25T14:25:07.967Z,27.10
2019-05-25T14:27:37.439Z,27.20
2019-05-25T14:30:07.796Z,27.10
2019-05-25T14:32:37.226Z,27.20
2019-05-25T14:35:06.887Z,27.20
2019-05-25T14:37:36.625Z,27.20
2019-05-25T14:40:11.048Z,27.10
2019-05-25T14:42:38.494Z,27.10
2019-05-25T14:45:08.693Z,27.10
2019-05-25T14:47:38.183Z,27.10
2019-05-25T14:50:07.705Z,26.90
2019-05-25T14:52:37.113Z,26.80
2019-05-25T14:55:06.771Z,26.60
2019-05-25T14:57:36.180Z,26.50
2019-05-25T15:00:06.626Z,26.40
2019-05-25T15:02:36.082Z,26.10
2019-05-25T15:05:06.330Z,26.00
2019-05-25T15:07:35.746Z,26.00
2019-05-25T15:10:05.464Z,25.90
2019-05-25T15:12:34.982Z,25.80
2019-05-25T15:15:04.788Z,25.80
2019-05-25T15:17:37.164Z,25.70
2019-05-25T15:20:05.909Z,25.60
2019-05-25T15:22:35.352Z,25.50
2019-05-25T15:25:05.662Z,25.50
2019-05-25T15:27:35.169Z,25.40
2019-05-25T15:30:05.122Z,25.30
2019-05-25T15:32:34.580Z,25.20
2019-05-25T15:35:04.095Z,25.10
2019-05-25T15:37:33.535Z,25.00
2019-05-25T15:40:02.937Z,24.80
2019-05-25T15:42:32.414Z,24.90
2019-05-25T15:45:03.013Z,24.80
2019-05-25T15:47:32.454Z,24.70
2019-05-25T15:50:05.871Z,24.70
2019-05-25T15:52:35.320Z,24.70
2019-05-25T15:55:05.877Z,24.60
2019-05-25T15:57:35.349Z,24.50
2019-05-25T16:00:06.417Z,24.50
2019-05-25T16:02:37.105Z,24.40
2019-05-25T16:05:07.316Z,24.40
2019-05-25T16:07:40.887Z,24.30
2019-05-25T16:10:10.579Z,24.30
2019-05-25T16:12:40.069Z,24.20
2019-05-25T16:15:09.818Z,24.10
2019-05-25T16:17:39.814Z,24.10
2019-05-25T16:20:09.847Z,24.10
2019-05-25T16:22:39.315Z,24.10
2019-05-25T16:25:08.829Z,24.00
2019-05-25T16:27:38.303Z,24.00
2019-05-25T16:30:08.743Z,24.00
2019-05-25T16:33:10.180Z,24.00
2019-05-25T16:35:09.366Z,24.00
2019-05-25T16:37:39.047Z,24.00
2019-05-25T16:40:09.287Z,24.00
2019-05-25T16:42:38.885Z,24.00
2019-05-25T16:45:09.705Z,24.00
2019-05-25T16:47:39.220Z,24.00
2019-05-25T16:50:14.528Z,24.00
2019-05-25T16:52:43.838Z,24.00
2019-05-25T16:55:13.673Z,24.00
2019-05-25T16:57:43.086Z,24.00
2019-05-25T17:00:13.361Z,24.00
2019-05-25T17:02:42.841Z,23.90
2019-05-25T17:05:12.544Z,23.80
2019-05-25T17:07:41.936Z,23.80
2019-05-25T17:10:11.350Z,23.70
2019-05-25T17:12:40.802Z,23.60
2019-05-25T17:15:10.602Z,23.50
2019-05-25T17:17:40.017Z,23.50
2019-05-25T17:20:09.454Z,23.50
2019-05-25T17:22:38.843Z,23.40
2019-05-25T17:25:08.331Z,23.30
2019-05-25T17:27:37.913Z,23.30
2019-05-25T17:30:11.398Z,23.20
2019-05-25T17:32:41.288Z,23.20
2019-05-25T17:35:11.827Z,23.10
2019-05-25T17:37:41.294Z,22.90
2019-05-25T17:40:11.106Z,22.80
2019-05-25T17:42:40.801Z,22.80
2019-05-25T17:45:10.420Z,22.70
2019-05-25T17:47:39.900Z,22.60
2019-05-25T17:50:11.335Z,22.50
2019-05-25T17:52:40.535Z,22.50
2019-05-25T17:55:09.865Z,22.30
2019-05-25T17:57:39.351Z,22.20
2019-05-25T18:00:11.026Z,22.10
2019-05-25T18:02:40.542Z,22.00
2019-05-25T18:05:10.411Z,21.90
2019-05-25T18:07:39.846Z,21.80
2019-05-25T18:10:10.311Z,21.70
2019-05-25T18:12:39.932Z,21.50
2019-05-25T18:15:09.849Z,21.40
2019-05-25T18:17:39.366Z,21.30
2019-05-25T18:20:09.189Z,21.10
2019-05-25T18:22:38.660Z,21.00
2019-05-25T18:25:08.260Z,20.90
2019-05-25T18:27:37.649Z,20.80
2019-05-25T18:30:07.574Z,20.70
2019-05-25T18:32:37.053Z,20.60
2019-05-25T18:35:06.693Z,20.60
2019-05-25T18:37:36.123Z,20.40
2019-05-25T18:40:05.756Z,20.30
2019-05-25T18:42:35.169Z,20.20
2019-05-25T18:45:04.719Z,20.10
2019-05-25T18:47:34.142Z,20.00
2019-05-25T18:50:03.550Z,19.90
2019-05-25T18:52:33.003Z,19.80
2019-05-25T18:55:02.427Z,19.70
2019-05-25T18:57:31.826Z,19.70
2019-05-25T19:00:03.555Z,19.50
2019-05-25T19:02:32.927Z,19.40
2019-05-25T19:05:03.390Z,19.30
2019-05-25T19:07:32.702Z,19.30
2019-05-25T19:10:03.025Z,19.20
2019-05-25T19:12:32.431Z,19.10
2019-05-25T19:15:03.050Z,19.00
2019-05-25T19:17:32.402Z,19.00
2019-05-25T19:22:36.198Z,18.80
2019-05-25T19:25:06.326Z,18.70
2019-05-25T19:27:35.748Z,18.60
2019-05-25T19:30:05.906Z,18.60
2019-05-25T19:32:35.292Z,18.50
2019-05-25T19:35:05.080Z,18.50
2019-05-25T19:37:34.524Z,18.40
2019-05-25T19:40:08.587Z,18.40
2019-05-25T19:42:35.647Z,18.30
2019-05-25T19:45:05.624Z,18.30
2019-05-25T19:47:35.008Z,18.20
2019-05-25T19:50:05.371Z,18.20
2019-05-25T19:52:35.022Z,18.10
2019-05-25T19:55:04.880Z,18.10
2019-05-25T19:57:34.254Z,18.00
2019-05-25T20:00:03.598Z,18.00
2019-05-25T20:02:32.938Z,18.00
2019-05-25T20:05:15.899Z,18.00
2019-05-25T20:07:33.914Z,18.00
2019-05-25T20:10:03.213Z,18.00
2019-05-25T20:12:32.710Z,18.00
2019-05-25T20:15:02.035Z,18.00
2019-05-25T20:17:31.450Z,18.00
2019-05-25T20:20:00.743Z,17.90
2019-05-25T20:22:30.066Z,17.90
2019-05-25T20:24:59.450Z,17.90
2019-05-25T20:27:28.793Z,17.90
2019-05-25T20:29:58.194Z,17.90
2019-05-25T20:32:27.739Z,17.90
2019-05-25T20:34:57.056Z,17.90
2019-05-25T20:37:26.417Z,17.90
2019-05-25T20:39:55.803Z,17.90
2019-05-25T20:42:25.130Z,17.90
2019-05-25T20:44:54.559Z,17.90
2019-05-25T20:47:23.898Z,17.90
2019-05-25T20:49:53.290Z,17.90
2019-05-25T20:52:22.633Z,17.90
2019-05-25T20:54:52.046Z,17.90
2019-05-25T20:57:21.409Z,17.90
2019-05-25T20:59:50.806Z,17.90
2019-05-25T21:02:20.291Z,17.90
2019-05-25T21:04:49.669Z,17.90
2019-05-25T21:07:19.074Z,17.80
2019-05-25T21:09:48.490Z,17.80
2019-05-25T21:12:17.829Z,17.80
2019-05-25T21:14:47.174Z,17.80
2019-05-25T21:17:16.647Z,17.80
2019-05-25T21:19:46.054Z,17.80
2019-05-25T21:22:15.372Z,17.80
2019-05-25T21:24:44.795Z,17.70
2019-05-25T21:27:14.121Z,17.80
2019-05-25T21:29:43.447Z,17.80
2019-05-25T21:32:12.856Z,17.80
2019-05-25T21:34:42.270Z,17.80
2019-05-25T21:37:11.725Z,17.80
2019-05-25T21:39:41.131Z,17.80
2019-05-25T21:42:13.565Z,17.70
2019-05-25T21:44:44.996Z,17.70
2019-05-25T21:47:14.431Z,17.70
2019-05-25T21:49:43.817Z,17.70
2019-05-25T21:52:13.224Z,17.70
2019-05-25T21:54:42.645Z,17.70
2019-05-25T21:57:12.133Z,17.70
2019-05-25T21:59:41.521Z,17.70
2019-05-25T22:02:11.019Z,17.70
2019-05-25T22:04:41.762Z,17.70
2019-05-25T22:07:12.909Z,17.70
2019-05-25T22:09:43.392Z,17.70
2019-05-25T22:12:13.718Z,17.70
2019-05-25T22:14:45.201Z,17.70
2019-05-25T22:17:14.939Z,17.70
2019-05-25T22:19:46.799Z,17.70
2019-05-25T22:22:35.837Z,17.70
2019-05-25T22:25:05.827Z,17.70
2019-05-25T22:27:35.181Z,17.70
2019-05-25T22:30:04.549Z,17.70
2019-05-25T22:32:34.105Z,17.70
2019-05-25T22:37:58.574Z,17.70
2019-05-25T22:40:27.909Z,17.70
2019-05-25T22:42:57.225Z,17.70
2019-05-25T22:45:26.581Z,17.70
2019-05-25T22:47:56.013Z,17.70
2019-05-25T22:50:25.454Z,17.70
2019-05-25T22:52:54.796Z,17.70
2019-05-25T22:55:24.209Z,17.60
2019-05-25T22:57:53.599Z,17.60
2019-05-25T23:00:23.728Z,17.60
2019-05-25T23:02:53.111Z,17.60
2019-05-25T23:05:22.448Z,17.50
2019-05-25T23:07:51.872Z,17.50
2019-05-25T23:10:21.283Z,17.50
2019-05-25T23:12:50.618Z,17.40
2019-05-25T23:15:20.150Z,17.40
2019-05-25T23:17:49.461Z,17.40
2019-05-25T23:20:18.825Z,17.40
2019-05-25T23:22:48.144Z,17.40
2019-05-25T23:25:17.515Z,17.40
2019-05-25T23:27:46.905Z,17.40
2019-05-25T23:30:16.473Z,17.30
2019-05-25T23:32:45.876Z,17.30
2019-05-25T23:35:15.389Z,17.30
2019-05-25T23:37:44.709Z,17.30
2019-05-25T23:40:14.173Z,17.30
2019-05-25T23:42:43.534Z,17.30
2019-05-25T23:45:14.365Z,17.20
2019-05-25T23:47:43.751Z,17.20
2019-05-25T23:50:13.759Z,17.20
2019-05-25T23:52:43.197Z,17.20
2019-05-25T23:55:13.584Z,17.20
2019-05-25T23:57:43.022Z,17.10
